createdAt,value
2023-04-15T00:00:38.742Z,5.30
2023-04-15T00:01:38.747Z,5.60
2023-04-15T00:02:38.855Z,7.80
2023-04-15T00:03:39.041Z,5.30
2023-04-15T00:04:38.699Z,6.60
2023-04-15T00:05:38.676Z,5.70
2023-04-15T00:06:38.665Z,8.60
2023-04-15T00:07:38.685Z,7.00
2023-04-15T00:08:38.664Z,7.80
2023-04-15T00:09:38.672Z,8.30
2023-04-15T00:10:38.625Z,8.10
2023-04-15T00:11:38.615Z,5.90
2023-04-15T00:12:38.606Z,4.90
2023-04-15T00:13:38.589Z,7.10
2023-04-15T00:14:38.587Z,7.20
2023-04-15T00:15:38.580Z,6.10
2023-04-15T00:16:38.598Z,8.00
2023-04-15T00:17:38.599Z,6.30
2023-04-15T00:18:38.534Z,7.50
2023-04-15T00:19:38.534Z,5.70
2023-04-15T00:20:38.588Z,6.10
2023-04-15T00:21:38.503Z,4.30
2023-04-15T00:22:38.492Z,4.30
2023-04-15T00:23:38.483Z,5.50
2023-04-15T00:24:38.474Z,8.70
2023-04-15T00:25:38.473Z,7.00
2023-04-15T00:26:38.470Z,7.80
2023-04-15T00:27:38.435Z,7.60
2023-04-15T00:28:38.417Z,6.00
2023-04-15T00:29:38.413Z,6.00
2023-04-15T00:30:38.482Z,7.70
2023-04-15T00:31:38.396Z,5.30
2023-04-15T00:32:38.423Z,5.60
2023-04-15T00:33:38.371Z,5.20
2023-04-15T00:34:38.356Z,6.60
2023-04-15T00:35:38.375Z,6.60
2023-04-15T00:36:38.344Z,9.30
2023-04-15T00:37:38.341Z,6.10
2023-04-15T00:38:38.316Z,5.80
2023-04-15T00:39:38.303Z,8.10
2023-04-15T00:40:38.313Z,5.60
2023-04-15T00:41:38.280Z,6.70
2023-04-15T00:42:38.273Z,7.40
2023-04-15T00:43:38.257Z,6.90
2023-04-15T00:44:38.279Z,5.90
2023-04-15T00:45:38.241Z,8.60
2023-04-15T00:46:38.262Z,5.30
2023-04-15T00:47:38.220Z,6.80
2023-04-15T00:48:38.203Z,5.40
2023-04-15T00:49:38.197Z,6.20
2023-04-15T00:50:38.186Z,8.50
2023-04-15T00:51:38.174Z,9.90
2023-04-15T00:52:38.181Z,5.40
2023-04-15T00:53:38.183Z,6.30
2023-04-15T00:54:38.144Z,6.00
2023-04-15T00:55:38.122Z,6.00
2023-04-15T00:56:38.121Z,6.00
2023-04-15T00:57:38.130Z,5.60
2023-04-15T00:58:38.119Z,8.00
2023-04-15T00:59:38.079Z,6.40
2023-04-15T01:00:38.071Z,7.20
2023-04-15T01:01:38.072Z,8.20
2023-04-15T01:02:38.192Z,5.30
2023-04-15T01:03:38.355Z,5.30
2023-04-15T01:04:38.310Z,5.70
2023-04-15T01:05:38.038Z,8.70
2023-04-15T01:06:38.013Z,6.50
2023-04-15T01:07:38.018Z,7.40
2023-04-15T01:08:37.980Z,5.30
2023-04-15T01:09:37.967Z,7.50
2023-04-15T01:10:37.960Z,7.40
2023-04-15T01:11:37.952Z,7.70
2023-04-15T01:12:37.938Z,15.50
2023-04-15T01:13:37.962Z,8.20
2023-04-15T01:14:37.914Z,6.70
2023-04-15T01:15:37.936Z,6.30
2023-04-15T01:16:37.894Z,6.30
2023-04-15T01:17:37.918Z,7.60
2023-04-15T01:18:37.881Z,7.60
2023-04-15T01:19:37.884Z,7.30
2023-04-15T01:20:37.848Z,6.70
2023-04-15T01:21:37.832Z,6.20
2023-04-15T01:22:37.827Z,6.90
2023-04-15T01:23:37.829Z,6.70
2023-04-15T01:24:37.823Z,5.80
2023-04-15T01:25:37.803Z,5.50
2023-04-15T01:26:37.777Z,8.40
2023-04-15T01:27:37.781Z,6.70
2023-04-15T01:28:37.764Z,5.80
2023-04-15T01:29:37.786Z,7.90
2023-04-15T01:30:37.735Z,8.90
2023-04-15T01:31:37.932Z,6.50
2023-04-15T01:32:37.817Z,8.50
2023-04-15T01:33:37.709Z,6.00
2023-04-15T01:34:37.699Z,7.90
2023-04-15T01:35:37.708Z,6.20
2023-04-15T01:36:37.669Z,6.00
2023-04-15T01:37:37.665Z,8.30
2023-04-15T01:38:37.643Z,9.00
2023-04-15T01:39:37.645Z,6.90
2023-04-15T01:40:37.625Z,7.90
2023-04-15T01:41:37.648Z,9.70
2023-04-15T01:42:37.678Z,5.30
2023-04-15T01:43:37.591Z,7.30
2023-04-15T01:44:37.580Z,7.90
2023-04-15T01:45:37.580Z,17.70
2023-04-15T01:46:37.596Z,17.00
2023-04-15T01:47:37.635Z,19.80
2023-04-15T01:48:37.538Z,29.40
2023-04-15T01:49:37.530Z,32.90
2023-04-15T01:50:37.522Z,29.70
2023-04-15T01:51:37.527Z,27.60
2023-04-15T01:52:37.505Z,25.30
2023-04-15T01:53:37.491Z,22.60
2023-04-15T01:54:37.477Z,23.20
2023-04-15T01:55:37.470Z,29.50
2023-04-15T01:56:37.454Z,23.20
2023-04-15T01:57:37.465Z,24.60
2023-04-15T01:58:37.441Z,28.50
2023-04-15T01:59:37.451Z,20.60
2023-04-15T02:00:37.446Z,15.70
2023-04-15T02:01:37.404Z,22.30
2023-04-15T02:02:37.524Z,35.50
2023-04-15T02:03:37.504Z,37.00
2023-04-15T02:04:37.360Z,31.20
2023-04-15T02:05:37.378Z,28.30
2023-04-15T02:06:37.337Z,34.50
2023-04-15T02:07:37.338Z,26.00
2023-04-15T02:08:37.330Z,29.10
2023-04-15T02:09:37.315Z,25.60
2023-04-15T02:10:37.301Z,25.90
2023-04-15T02:11:37.314Z,21.00
2023-04-15T02:12:37.276Z,28.70
2023-04-15T02:13:37.268Z,42.40
2023-04-15T02:14:37.261Z,38.90
2023-04-15T02:15:37.252Z,55.50
2023-04-15T02:16:37.309Z,57.10
2023-04-15T02:17:37.275Z,50.20
2023-04-15T02:18:37.212Z,50.30
2023-04-15T02:19:37.202Z,43.30
2023-04-15T02:20:37.195Z,44.50
2023-04-15T02:21:37.208Z,55.50
2023-04-15T02:22:37.168Z,49.40
2023-04-15T02:23:37.162Z,67.00
2023-04-15T02:24:37.159Z,70.00
2023-04-15T02:25:37.135Z,62.60
2023-04-15T02:26:37.126Z,58.00
2023-04-15T02:27:37.143Z,94.60
2023-04-15T02:28:37.129Z,74.30
2023-04-15T02:29:37.097Z,74.00
2023-04-15T02:30:37.077Z,48.50
2023-04-15T02:31:37.206Z,47.30
2023-04-15T02:32:37.078Z,44.60
2023-04-15T02:33:37.092Z,45.70
2023-04-15T02:34:37.035Z,38.20
2023-04-15T02:35:37.036Z,45.50
2023-04-15T02:36:37.044Z,41.70
2023-04-15T02:37:37.020Z,57.70
2023-04-15T02:38:37.000Z,49.60
2023-04-15T02:39:37.029Z,44.60
2023-04-15T02:40:36.984Z,42.60
2023-04-15T02:41:36.975Z,34.40
2023-04-15T02:42:36.949Z,26.20
2023-04-15T02:43:36.942Z,32.40
2023-04-15T02:44:36.927Z,27.80
2023-04-15T02:45:37.011Z,24.70
2023-04-15T02:46:36.905Z,23.20
2023-04-15T02:47:36.914Z,22.00
2023-04-15T02:48:36.899Z,13.40
2023-04-15T02:49:36.871Z,24.10
2023-04-15T02:50:36.858Z,15.80
2023-04-15T02:51:36.877Z,12.60
2023-04-15T02:52:36.839Z,14.30
2023-04-15T02:53:36.826Z,15.50
2023-04-15T02:54:36.822Z,13.80
2023-04-15T02:55:36.809Z,14.00
2023-04-15T02:56:36.819Z,16.20
2023-04-15T02:57:36.782Z,10.80
2023-04-15T02:58:36.769Z,12.50
2023-04-15T02:59:36.770Z,15.10
2023-04-15T03:00:36.745Z,9.90
2023-04-15T03:01:36.801Z,13.10
2023-04-15T03:02:36.832Z,11.40
2023-04-15T03:03:36.774Z,9.40
2023-04-15T03:04:36.707Z,12.20
2023-04-15T03:05:36.697Z,10.80
2023-04-15T03:06:36.708Z,9.50
2023-04-15T03:07:36.680Z,8.90
2023-04-15T03:08:36.660Z,10.30
2023-04-15T03:09:36.654Z,10.50
2023-04-15T03:10:36.735Z,8.00
2023-04-15T03:11:36.624Z,10.40
2023-04-15T03:12:36.648Z,9.10
2023-04-15T03:13:36.615Z,8.80
2023-04-15T03:14:36.594Z,9.80
2023-04-15T03:15:36.648Z,8.00
2023-04-15T03:16:36.569Z,7.80
2023-04-15T03:17:36.624Z,10.90
2023-04-15T03:18:36.561Z,9.20
2023-04-15T03:19:36.537Z,9.00
2023-04-15T03:20:36.605Z,9.90
2023-04-15T03:21:36.528Z,9.20
2023-04-15T03:22:36.507Z,8.50
2023-04-15T03:23:36.534Z,8.40
2023-04-15T03:24:36.482Z,9.60
2023-04-15T03:25:36.471Z,7.70
2023-04-15T03:26:36.458Z,7.70
2023-04-15T03:27:36.453Z,8.00
2023-04-15T03:28:36.464Z,11.70
2023-04-15T03:29:36.434Z,9.70
2023-04-15T03:30:36.425Z,7.90
2023-04-15T03:31:36.445Z,9.00
2023-04-15T03:32:36.428Z,10.20
2023-04-15T03:33:36.414Z,7.20
2023-04-15T03:34:36.376Z,8.30
2023-04-15T03:35:36.363Z,9.80
2023-04-15T03:36:36.359Z,7.30
2023-04-15T03:37:36.341Z,7.80
2023-04-15T03:38:36.330Z,9.80
2023-04-15T03:39:36.349Z,9.00
2023-04-15T03:40:36.329Z,8.90
2023-04-15T03:41:36.303Z,7.20
2023-04-15T03:42:36.292Z,7.20
2023-04-15T03:43:36.279Z,9.80
2023-04-15T03:44:36.266Z,7.00
2023-04-15T03:45:36.273Z,7.50
2023-04-15T03:46:36.293Z,9.90
2023-04-15T03:47:36.280Z,7.60
2023-04-15T03:48:36.220Z,9.30
2023-04-15T03:49:36.217Z,10.20
2023-04-15T03:50:36.223Z,9.70
2023-04-15T03:51:36.203Z,9.10
2023-04-15T03:52:36.173Z,9.90
2023-04-15T03:53:36.174Z,7.90
2023-04-15T03:54:36.264Z,7.60
2023-04-15T03:55:36.151Z,8.00
2023-04-15T03:56:36.169Z,7.70
2023-04-15T03:57:36.149Z,8.40
2023-04-15T03:58:36.128Z,8.20
2023-04-15T03:59:36.126Z,8.40
2023-04-15T04:00:36.093Z,7.00
2023-04-15T04:01:36.098Z,7.60
2023-04-15T04:02:36.146Z,10.70
2023-04-15T04:03:36.181Z,7.90
2023-04-15T04:04:36.093Z,8.40
2023-04-15T04:05:36.033Z,8.20
2023-04-15T04:06:36.047Z,10.10
2023-04-15T04:07:36.022Z,11.60
2023-04-15T04:08:36.034Z,9.30
2023-04-15T04:09:36.027Z,8.30
2023-04-15T04:10:35.975Z,9.30
2023-04-15T04:11:35.992Z,9.70
2023-04-15T04:12:35.965Z,11.90
2023-04-15T04:13:35.954Z,12.50
2023-04-15T04:14:35.954Z,7.50
2023-04-15T04:15:35.950Z,7.00
2023-04-15T04:16:35.949Z,10.20
2023-04-15T04:17:35.997Z,7.10
2023-04-15T04:18:35.890Z,13.00
2023-04-15T04:19:35.889Z,10.50
2023-04-15T04:20:35.867Z,19.30
2023-04-15T04:21:35.867Z,14.40
2023-04-15T04:22:35.866Z,13.60
2023-04-15T04:23:35.841Z,11.80
2023-04-15T04:24:35.827Z,13.80
2023-04-15T04:25:35.813Z,11.50
2023-04-15T04:26:35.807Z,12.90
2023-04-15T04:27:35.824Z,12.30
2023-04-15T04:28:35.793Z,15.00
2023-04-15T04:29:35.773Z,12.50
2023-04-15T04:30:35.757Z,12.10
2023-04-15T04:31:35.781Z,14.30
2023-04-15T04:32:35.755Z,13.60
2023-04-15T04:33:35.780Z,12.70
2023-04-15T04:34:35.738Z,11.70
2023-04-15T04:35:35.709Z,11.00
2023-04-15T04:36:35.701Z,9.50
2023-04-15T04:37:35.693Z,11.80
2023-04-15T04:38:35.666Z,10.70
2023-04-15T04:39:35.686Z,13.00
2023-04-15T04:40:35.655Z,10.70
2023-04-15T04:41:35.643Z,10.30
2023-04-15T04:42:37.467Z,8.70
2023-04-15T04:43:35.615Z,11.20
2023-04-15T04:44:35.604Z,12.10
2023-04-15T04:45:35.648Z,12.90
2023-04-15T04:46:35.578Z,8.50
2023-04-15T04:47:35.593Z,8.90
2023-04-15T04:48:35.559Z,9.30
2023-04-15T04:49:35.554Z,9.40
2023-04-15T04:50:35.566Z,9.40
2023-04-15T04:51:35.540Z,9.40
2023-04-15T04:52:35.510Z,10.70
2023-04-15T04:53:35.511Z,11.00
2023-04-15T04:54:35.492Z,10.60
2023-04-15T04:55:35.510Z,9.20
2023-04-15T04:56:35.471Z,10.50
2023-04-15T04:57:35.491Z,8.90
2023-04-15T04:58:35.453Z,12.10
2023-04-15T04:59:35.445Z,11.00
2023-04-15T05:00:35.427Z,10.10
2023-04-15T05:01:35.442Z,10.40
2023-04-15T05:02:35.496Z,10.40
2023-04-15T05:03:35.582Z,7.40
2023-04-15T05:04:35.401Z,8.10
2023-04-15T05:05:35.376Z,10.60
2023-04-15T05:06:35.386Z,8.10
2023-04-15T05:07:35.345Z,11.40
2023-04-15T05:08:35.354Z,9.20
2023-04-15T05:09:35.331Z,10.00
2023-04-15T05:10:35.359Z,9.10
2023-04-15T05:11:35.315Z,9.80
2023-04-15T05:12:35.316Z,10.80
2023-04-15T05:13:35.289Z,10.60
2023-04-15T05:14:35.297Z,9.90
2023-04-15T05:15:35.296Z,8.60
2023-04-15T05:16:35.252Z,9.90
2023-04-15T05:17:35.386Z,11.30
2023-04-15T05:18:35.247Z,15.40
2023-04-15T05:19:35.221Z,12.10
2023-04-15T05:20:35.206Z,9.80
2023-04-15T05:21:36.214Z,9.10
2023-04-15T05:22:35.220Z,13.60
2023-04-15T05:23:35.183Z,10.10
2023-04-15T05:24:35.173Z,10.60
2023-04-15T05:25:35.164Z,12.40
2023-04-15T05:26:35.153Z,12.00
2023-04-15T05:27:35.164Z,11.10
2023-04-15T05:28:35.148Z,10.00
2023-04-15T05:29:35.111Z,9.70
2023-04-15T05:30:35.667Z,10.80
2023-04-15T05:31:35.310Z,11.00
2023-04-15T05:32:35.113Z,10.00
2023-04-15T05:33:35.072Z,10.80
2023-04-15T05:34:35.087Z,10.20
2023-04-15T05:35:35.062Z,12.60
2023-04-15T05:36:35.038Z,12.90
2023-04-15T05:37:35.060Z,13.60
2023-04-15T05:38:35.016Z,10.60
2023-04-15T05:39:34.998Z,10.50
2023-04-15T05:40:34.991Z,10.60
2023-04-15T05:41:35.167Z,10.90
2023-04-15T05:42:35.007Z,12.70
2023-04-15T05:43:34.961Z,10.90
2023-04-15T05:44:34.960Z,10.30
2023-04-15T05:45:34.969Z,13.80
2023-04-15T05:46:35.035Z,10.60
2023-04-15T05:47:34.917Z,10.70
2023-04-15T05:48:34.901Z,10.30
2023-04-15T05:49:34.890Z,14.40
2023-04-15T05:50:34.930Z,9.00
2023-04-15T05:51:34.892Z,12.90
2023-04-15T05:52:34.876Z,11.20
2023-04-15T05:53:34.848Z,12.30
2023-04-15T05:54:34.858Z,11.40
2023-04-15T05:55:34.834Z,11.40
2023-04-15T05:56:34.819Z,12.70
2023-04-15T05:57:34.807Z,11.00
2023-04-15T05:58:34.797Z,11.60
2023-04-15T05:59:34.832Z,12.80
2023-04-15T06:00:34.777Z,14.00
2023-04-15T06:01:34.764Z,15.40
2023-04-15T06:02:35.028Z,12.00
2023-04-15T06:03:34.819Z,10.00
2023-04-15T06:04:34.873Z,11.10
2023-04-15T06:05:34.720Z,10.00
2023-04-15T06:06:34.702Z,11.40
2023-04-15T06:07:34.724Z,10.40
2023-04-15T06:08:34.693Z,9.90
2023-04-15T06:09:34.669Z,10.90
2023-04-15T06:10:34.660Z,13.10
2023-04-15T06:11:34.648Z,10.90
2023-04-15T06:12:34.638Z,12.60
2023-04-15T06:13:34.674Z,11.50
2023-04-15T06:14:34.626Z,12.70
2023-04-15T06:15:34.605Z,11.20
2023-04-15T06:16:34.623Z,12.60
2023-04-15T06:17:34.620Z,10.60
2023-04-15T06:18:34.627Z,11.80
2023-04-15T06:19:34.579Z,13.30
2023-04-15T06:20:34.560Z,14.70
2023-04-15T06:21:34.545Z,12.10
2023-04-15T06:22:34.552Z,12.20
2023-04-15T06:23:34.549Z,13.90
2023-04-15T06:24:34.512Z,16.00
2023-04-15T06:25:34.499Z,13.00
2023-04-15T06:26:34.487Z,12.30
2023-04-15T06:27:34.477Z,16.00
2023-04-15T06:28:34.524Z,11.90
2023-04-15T06:29:34.485Z,11.60
2023-04-15T06:30:34.450Z,14.00
2023-04-15T06:31:34.461Z,10.80
2023-04-15T06:32:34.459Z,11.30
2023-04-15T06:33:34.412Z,10.50
2023-04-15T06:34:34.461Z,11.50
2023-04-15T06:35:34.410Z,10.90
2023-04-15T06:36:34.401Z,14.00
2023-04-15T06:37:34.364Z,13.20
2023-04-15T06:38:34.368Z,13.60
2023-04-15T06:39:34.391Z,10.70
2023-04-15T06:40:34.340Z,12.80
2023-04-15T06:41:34.328Z,13.80
2023-04-15T06:42:34.323Z,11.70
2023-04-15T06:43:34.330Z,12.60
2023-04-15T06:44:34.292Z,13.90
2023-04-15T06:45:34.321Z,10.90
2023-04-15T06:46:34.278Z,13.00
2023-04-15T06:47:34.351Z,14.30
2023-04-15T06:48:34.257Z,10.80
2023-04-15T06:49:34.259Z,11.80
2023-04-15T06:50:34.230Z,11.60
2023-04-15T06:51:34.220Z,13.20
2023-04-15T06:52:34.212Z,11.70
2023-04-15T06:53:34.197Z,10.50
2023-04-15T06:54:34.214Z,17.20
2023-04-15T06:55:34.182Z,12.30
2023-04-15T06:56:34.196Z,14.00
2023-04-15T06:57:35.143Z,13.40
2023-04-15T06:58:34.155Z,11.70
2023-04-15T06:59:34.128Z,14.50
2023-04-15T07:00:34.156Z,11.90
2023-04-15T07:01:34.240Z,12.80
2023-04-15T07:02:34.204Z,12.00
2023-04-15T07:03:34.092Z,11.80
2023-04-15T07:04:34.145Z,13.40
2023-04-15T07:05:34.065Z,16.60
2023-04-15T07:06:34.073Z,13.50
2023-04-15T07:07:34.046Z,14.70
2023-04-15T07:08:34.060Z,13.70
2023-04-15T07:09:34.025Z,11.70
2023-04-15T07:10:34.014Z,11.70
2023-04-15T07:11:34.012Z,11.50
2023-04-15T07:12:33.983Z,12.30
2023-04-15T07:13:33.973Z,15.10
2023-04-15T07:14:33.969Z,14.00
2023-04-15T07:15:33.958Z,12.40
2023-04-15T07:16:34.009Z,14.00
2023-04-15T07:17:33.992Z,12.40
2023-04-15T07:18:33.923Z,12.40
2023-04-15T07:19:33.917Z,14.50
2023-04-15T07:20:33.900Z,18.30
2023-04-15T07:21:33.890Z,14.40
2023-04-15T07:22:33.905Z,11.40
2023-04-15T07:23:33.876Z,13.30
2023-04-15T07:24:33.854Z,12.50
2023-04-15T07:25:33.835Z,13.00
2023-04-15T07:26:33.818Z,14.40
2023-04-15T07:27:33.822Z,9.40
2023-04-15T07:28:33.875Z,9.30
2023-04-15T07:29:33.789Z,11.30
2023-04-15T07:30:33.785Z,12.80
2023-04-15T07:31:33.801Z,10.50
2023-04-15T07:32:33.796Z,12.10
2023-04-15T07:33:33.753Z,17.30
2023-04-15T07:34:33.731Z,12.40
2023-04-15T07:35:33.723Z,14.00
2023-04-15T07:36:33.715Z,13.60
2023-04-15T07:37:33.731Z,13.60
2023-04-15T07:38:33.722Z,13.90
2023-04-15T07:39:33.681Z,13.10
2023-04-15T07:40:33.674Z,14.30
2023-04-15T07:41:33.664Z,10.90
2023-04-15T07:42:33.650Z,11.30
2023-04-15T07:43:33.665Z,11.50
2023-04-15T07:44:33.653Z,9.80
2023-04-15T07:45:33.616Z,10.80
2023-04-15T07:46:33.659Z,12.10
2023-04-15T07:47:33.654Z,14.10
2023-04-15T07:48:34.945Z,12.50
2023-04-15T07:49:33.598Z,10.90
2023-04-15T07:50:33.608Z,11.30
2023-04-15T07:51:33.552Z,10.90
2023-04-15T07:52:33.542Z,8.90
2023-04-15T07:53:33.581Z,8.30
2023-04-15T07:54:33.525Z,10.50
2023-04-15T07:55:33.510Z,9.70
2023-04-15T07:56:33.511Z,11.30
2023-04-15T07:57:33.491Z,9.90
2023-04-15T07:58:33.487Z,9.30
2023-04-15T07:59:33.497Z,14.40
2023-04-15T08:00:33.453Z,13.50
2023-04-15T08:01:33.439Z,20.90
2023-04-15T08:02:33.564Z,13.90
2023-04-15T08:03:33.539Z,9.90
2023-04-15T08:04:33.529Z,9.70
2023-04-15T08:05:33.402Z,9.20
2023-04-15T08:06:33.406Z,8.80
2023-04-15T08:07:33.372Z,11.20
2023-04-15T08:08:33.382Z,11.70
2023-04-15T08:09:33.349Z,10.70
2023-04-15T08:10:33.346Z,10.80
2023-04-15T08:11:33.331Z,10.60
2023-04-15T08:12:33.346Z,8.90
2023-04-15T08:13:33.309Z,8.60
2023-04-15T08:14:33.310Z,10.80
2023-04-15T08:15:33.289Z,10.70
2023-04-15T08:16:33.378Z,10.30
2023-04-15T08:17:33.274Z,10.40
2023-04-15T08:18:33.276Z,9.50
2023-04-15T08:19:33.254Z,10.20
2023-04-15T08:20:33.225Z,10.10
2023-04-15T08:21:33.219Z,12.10
2023-04-15T08:22:33.211Z,13.50
2023-04-15T08:23:33.222Z,9.80
2023-04-15T08:24:33.192Z,9.70
2023-04-15T08:25:33.191Z,9.90
2023-04-15T08:26:33.158Z,9.70
2023-04-15T08:27:33.148Z,11.30
2023-04-15T08:28:33.171Z,10.00
2023-04-15T08:29:33.128Z,10.50
2023-04-15T08:30:33.124Z,12.00
2023-04-15T08:31:33.185Z,9.20
2023-04-15T08:32:33.176Z,10.70
2023-04-15T08:33:33.106Z,9.20
2023-04-15T08:34:33.085Z,9.30
2023-04-15T08:35:33.084Z,9.90
2023-04-15T08:36:33.055Z,12.30
2023-04-15T08:37:33.033Z,9.20
2023-04-15T08:38:33.029Z,9.50
2023-04-15T08:39:33.011Z,8.60
2023-04-15T08:40:33.035Z,8.10
2023-04-15T08:41:32.996Z,8.20
2023-04-15T08:42:32.993Z,10.80
2023-04-15T08:43:33.038Z,8.30
2023-04-15T08:44:32.963Z,8.40
2023-04-15T08:45:32.950Z,9.10
2023-04-15T08:46:33.009Z,9.00
2023-04-15T08:47:32.992Z,10.30
2023-04-15T08:48:32.927Z,10.40
2023-04-15T08:49:32.915Z,10.20
2023-04-15T08:50:32.924Z,9.60
2023-04-15T08:51:32.890Z,11.00
2023-04-15T08:52:32.900Z,8.20
2023-04-15T08:53:32.867Z,9.10
2023-04-15T08:54:32.855Z,11.80
2023-04-15T08:55:32.868Z,8.90
2023-04-15T08:56:32.972Z,11.80
2023-04-15T08:57:32.837Z,9.70
2023-04-15T08:58:32.813Z,8.50
2023-04-15T08:59:32.826Z,9.60
2023-04-15T09:00:32.783Z,9.70
2023-04-15T09:01:32.873Z,8.40
2023-04-15T09:02:32.939Z,10.00
2023-04-15T09:03:32.807Z,9.70
2023-04-15T09:04:32.747Z,9.40
2023-04-15T09:05:32.733Z,7.80
2023-04-15T09:06:32.728Z,10.60
2023-04-15T09:07:32.706Z,10.00
2023-04-15T09:08:32.727Z,9.40
2023-04-15T09:09:32.694Z,9.50
2023-04-15T09:10:32.682Z,9.00
2023-04-15T09:11:32.664Z,8.20
2023-04-15T09:12:32.667Z,11.20
2023-04-15T09:13:32.664Z,9.90
2023-04-15T09:14:32.637Z,12.10
2023-04-15T09:15:32.620Z,9.50
2023-04-15T09:16:32.678Z,10.70
2023-04-15T09:17:32.684Z,9.50
2023-04-15T09:18:32.592Z,9.80
2023-04-15T09:19:32.602Z,8.70
2023-04-15T09:20:32.568Z,7.90
2023-04-15T09:21:32.557Z,7.70
2023-04-15T09:22:32.581Z,10.10
2023-04-15T09:23:32.530Z,10.90
2023-04-15T09:24:32.558Z,8.80
2023-04-15T09:25:34.779Z,10.30
2023-04-15T09:26:32.504Z,11.00
2023-04-15T09:27:32.493Z,8.80
2023-04-15T09:28:32.500Z,8.50
2023-04-15T09:29:32.480Z,11.40
2023-04-15T09:30:32.480Z,10.00
2023-04-15T09:31:32.442Z,7.70
2023-04-15T09:32:32.502Z,10.30
2023-04-15T09:33:32.417Z,7.40
2023-04-15T09:34:32.408Z,9.00
2023-04-15T09:35:32.405Z,8.50
2023-04-15T09:36:32.388Z,7.70
2023-04-15T09:37:32.702Z,11.70
2023-04-15T09:38:32.360Z,8.60
2023-04-15T09:39:32.350Z,8.10
2023-04-15T09:40:32.341Z,10.80
2023-04-15T09:41:32.328Z,9.70
2023-04-15T09:42:32.315Z,7.60
2023-04-15T09:43:32.338Z,8.60
2023-04-15T09:44:32.300Z,8.10
2023-04-15T09:45:32.285Z,9.40
2023-04-15T09:46:32.338Z,8.20
2023-04-15T09:47:32.522Z,9.30
2023-04-15T09:48:32.251Z,9.90
2023-04-15T09:49:32.317Z,7.90
2023-04-15T09:50:32.283Z,9.20
2023-04-15T09:51:32.220Z,10.50
2023-04-15T09:52:32.212Z,9.20
2023-04-15T09:53:32.197Z,9.00
2023-04-15T09:54:32.188Z,7.40
2023-04-15T09:55:32.211Z,9.90
2023-04-15T09:56:32.183Z,9.50
2023-04-15T09:57:32.164Z,7.80
2023-04-15T09:58:32.166Z,9.70
2023-04-15T09:59:32.129Z,7.90
2023-04-15T10:00:32.146Z,9.20
2023-04-15T10:01:32.151Z,7.80
2023-04-15T10:02:32.173Z,7.10
2023-04-15T10:03:32.280Z,8.20
2023-04-15T10:04:32.101Z,6.50
2023-04-15T10:05:32.097Z,7.10
2023-04-15T10:06:32.054Z,6.70
2023-04-15T10:07:32.071Z,7.10
2023-04-15T10:08:32.039Z,7.20
2023-04-15T10:09:32.054Z,6.80
2023-04-15T10:10:32.041Z,6.20
2023-04-15T10:11:32.014Z,8.00
2023-04-15T10:12:31.991Z,7.90
2023-04-15T10:13:31.980Z,6.60
2023-04-15T10:14:31.967Z,7.40
2023-04-15T10:15:31.994Z,7.50
2023-04-15T10:16:31.947Z,7.30
2023-04-15T10:17:31.994Z,8.40
2023-04-15T10:18:31.924Z,7.40
2023-04-15T10:19:31.917Z,7.20
2023-04-15T10:20:31.908Z,7.00
2023-04-15T10:21:31.914Z,8.10
2023-04-15T10:22:31.944Z,6.70
2023-04-15T10:23:31.871Z,6.10
2023-04-15T10:24:31.874Z,7.70
2023-04-15T10:25:31.850Z,7.20
2023-04-15T10:26:31.854Z,6.30
2023-04-15T10:27:31.835Z,6.90
2023-04-15T10:28:31.816Z,6.80
2023-04-15T10:29:31.808Z,6.80
2023-04-15T10:30:31.799Z,5.90
2023-04-15T10:31:31.890Z,5.50
2023-04-15T10:32:31.810Z,8.10
2023-04-15T10:33:31.779Z,5.50
2023-04-15T10:34:31.771Z,6.30
2023-04-15T10:35:31.758Z,4.40
2023-04-15T10:36:31.740Z,5.90
2023-04-15T10:37:31.718Z,8.60
2023-04-15T10:38:31.704Z,7.20
2023-04-15T10:39:31.724Z,6.70
2023-04-15T10:40:31.762Z,6.10
2023-04-15T10:41:31.680Z,5.70
2023-04-15T10:42:31.661Z,5.80
2023-04-15T10:43:31.652Z,6.30
2023-04-15T10:44:31.662Z,7.70
2023-04-15T10:45:31.630Z,5.40
2023-04-15T10:46:31.660Z,8.00
2023-04-15T10:47:31.630Z,7.20
2023-04-15T10:48:31.592Z,6.50
2023-04-15T10:49:31.585Z,8.70
2023-04-15T10:50:31.576Z,7.00
2023-04-15T10:51:31.599Z,6.70
2023-04-15T10:52:31.558Z,8.70
2023-04-15T10:53:31.538Z,7.10
2023-04-15T10:54:31.554Z,6.90
2023-04-15T10:55:31.559Z,6.40
2023-04-15T10:56:31.526Z,6.70
2023-04-15T10:57:31.493Z,6.70
2023-04-15T10:58:31.485Z,6.20
2023-04-15T10:59:31.477Z,5.90
2023-04-15T11:00:31.471Z,7.90
2023-04-15T11:01:31.485Z,7.70
2023-04-15T11:02:31.590Z,7.60
2023-04-15T11:03:31.525Z,8.00
2023-04-15T11:04:31.471Z,5.50
2023-04-15T11:05:31.404Z,5.30
2023-04-15T11:06:31.400Z,5.10
2023-04-15T11:07:31.384Z,5.00
2023-04-15T11:08:31.373Z,4.80
2023-04-15T11:09:31.396Z,3.20
2023-04-15T11:10:31.377Z,5.20
2023-04-15T11:11:31.344Z,4.10
2023-04-15T11:12:31.328Z,4.60
2023-04-15T11:13:31.341Z,4.90
2023-04-15T11:14:31.325Z,5.90
2023-04-15T11:15:31.316Z,4.70
2023-04-15T11:16:31.355Z,5.30
2023-04-15T11:17:31.328Z,3.90
2023-04-15T11:18:31.279Z,4.40
2023-04-15T11:19:31.258Z,3.40
2023-04-15T11:20:31.243Z,4.90
2023-04-15T11:21:31.243Z,3.60
2023-04-15T11:22:31.239Z,4.30
2023-04-15T11:23:31.213Z,3.20
2023-04-15T11:24:31.194Z,3.30
2023-04-15T11:25:31.186Z,3.40
2023-04-15T11:26:31.170Z,3.20
2023-04-15T11:27:31.189Z,2.70
2023-04-15T11:28:31.147Z,2.20
2023-04-15T11:29:31.138Z,3.30
2023-04-15T11:30:31.128Z,2.60
2023-04-15T11:31:31.162Z,4.30
2023-04-15T11:32:31.150Z,4.20
2023-04-15T11:33:31.098Z,3.60
2023-04-15T11:34:31.085Z,3.10
2023-04-15T11:35:31.075Z,3.20
2023-04-15T11:36:31.059Z,4.30
2023-04-15T11:37:31.095Z,3.40
2023-04-15T11:38:31.040Z,4.40
2023-04-15T11:39:31.035Z,3.70
2023-04-15T11:40:31.021Z,2.90
2023-04-15T11:41:31.030Z,2.10
2023-04-15T11:42:42.788Z,4.10
2023-04-15T11:43:31.017Z,3.10
2023-04-15T11:44:31.004Z,3.20
2023-04-15T11:45:30.998Z,3.00
2023-04-15T11:46:31.001Z,2.70
2023-04-15T11:47:31.013Z,3.80
2023-04-15T11:48:30.969Z,3.30
2023-04-15T11:49:30.948Z,3.80
2023-04-15T11:50:30.913Z,4.40
2023-04-15T11:51:30.901Z,4.80
2023-04-15T11:52:30.891Z,3.50
2023-04-15T11:53:30.879Z,4.00
2023-04-15T11:54:30.864Z,2.70
2023-04-15T11:55:30.878Z,3.60
2023-04-15T11:56:30.842Z,3.90
2023-04-15T11:58:22.718Z,2.80
2023-04-15T11:59:26.354Z,3.50
2023-04-15T12:00:23.673Z,4.30
2023-04-15T12:01:23.683Z,3.00
2023-04-15T12:02:23.926Z,4.70
2023-04-15T12:03:23.909Z,2.90
2023-04-15T12:04:25.470Z,4.00
2023-04-15T12:05:23.690Z,4.10
2023-04-15T12:06:23.619Z,3.50
2023-04-15T12:07:23.597Z,4.90
2023-04-15T12:08:23.586Z,6.70
2023-04-15T12:09:23.605Z,3.50
2023-04-15T12:10:23.556Z,4.10
2023-04-15T12:11:23.546Z,3.30
2023-04-15T12:12:23.536Z,5.90
2023-04-15T12:13:23.581Z,3.80
2023-04-15T12:14:23.534Z,2.70
2023-04-15T12:15:23.532Z,3.20
2023-04-15T12:16:23.665Z,3.40
2023-04-15T12:17:23.545Z,3.00
2023-04-15T12:18:23.476Z,4.90
2023-04-15T12:19:23.497Z,4.10
2023-04-15T12:20:23.452Z,4.10
2023-04-15T12:21:23.461Z,3.00
2023-04-15T12:22:23.430Z,4.70
2023-04-15T12:23:23.435Z,2.80
2023-04-15T12:24:23.409Z,4.70
2023-04-15T12:25:23.399Z,3.60
2023-04-15T12:26:23.402Z,2.30
2023-04-15T12:27:23.372Z,4.00
2023-04-15T12:28:23.382Z,4.70
2023-04-15T12:29:23.384Z,3.00
2023-04-15T12:30:23.342Z,2.70
2023-04-15T12:31:23.370Z,3.30
2023-04-15T12:32:23.351Z,2.60
2023-04-15T12:33:23.345Z,2.60
2023-04-15T12:34:23.305Z,4.60
2023-04-15T12:35:23.303Z,5.10
2023-04-15T12:36:23.281Z,3.50
2023-04-15T12:37:23.300Z,2.70
2023-04-15T12:38:23.261Z,3.10
2023-04-15T12:39:23.254Z,4.60
2023-04-15T12:40:23.239Z,4.40
2023-04-15T12:41:23.233Z,3.60
2023-04-15T12:42:23.246Z,3.10
2023-04-15T12:43:23.321Z,2.70
2023-04-15T12:44:23.199Z,3.20
2023-04-15T12:45:23.185Z,3.60
2023-04-15T12:46:23.282Z,3.10
2023-04-15T12:47:23.197Z,3.70
2023-04-15T12:48:23.151Z,2.90
2023-04-15T12:49:23.144Z,4.00
2023-04-15T12:50:23.147Z,2.80
2023-04-15T12:51:23.121Z,3.80
2023-04-15T12:52:23.611Z,7.00
2023-04-15T12:53:23.434Z,2.90
2023-04-15T12:54:23.610Z,3.00
2023-04-15T12:55:23.430Z,3.60
2023-04-15T12:56:23.225Z,4.90
2023-04-15T12:57:23.239Z,4.90
2023-04-15T12:58:23.255Z,7.00
2023-04-15T12:59:23.052Z,7.20
2023-04-15T13:00:23.061Z,10.20
2023-04-15T13:01:23.159Z,9.10
2023-04-15T13:02:23.214Z,8.60
2023-04-15T13:03:23.057Z,5.90
2023-04-15T13:04:23.138Z,4.60
2023-04-15T13:05:22.988Z,9.00
2023-04-15T13:06:22.952Z,7.40
2023-04-15T13:07:22.967Z,8.90
2023-04-15T13:08:22.936Z,13.80